sensor_id;sensor_type;location;lat;lon;timestamp;temperature;humidity
41838;DHT22;27511;52.042;5.178;2022-12-16T00:01:10;3.40;99.90
41838;DHT22;27511;52.042;5.178;2022-12-16T00:03:37;3.40;99.90
41838;DHT22;27511;52.042;5.178;2022-12-16T00:06:04;3.40;99.90
41838;DHT22;27511;52.042;5.178;2022-12-16T00:08:34;3.40;99.90
41838;DHT22;27511;52.042;5.178;2022-12-16T00:11:01;3.40;99.90
41838;DHT22;27511;52.042;5.178;2022-12-16T00:13:28;3.30;99.90
41838;DHT22;27511;52.042;5.178;2022-12-16T00:15:54;3.30;99.90
41838;DHT22;27511;52.042;5.178;2022-12-16T00:18:20;3.30;99.90
41838;DHT22;27511;52.042;5.178;2022-12-16T00:20:48;3.30;99.90
41838;DHT22;27511;52.042;5.178;2022-12-16T00:23:14;3.30;99.90
41838;DHT22;27511;52.042;5.178;2022-12-16T00:25:43;3.30;99.90
41838;DHT22;27511;52.042;5.178;2022-12-16T00:28:10;3.20;99.90
41838;DHT22;27511;52.042;5.178;2022-12-16T00:30:36;3.20;99.90
41838;DHT22;27511;52.042;5.178;2022-12-16T00:33:02;3.20;99.90
41838;DHT22;27511;52.042;5.178;2022-12-16T00:35:28;3.10;99.90
41838;DHT22;27511;52.042;5.178;2022-12-16T00:37:55;3.10;99.90
41838;DHT22;27511;52.042;5.178;2022-12-16T00:40:20;3.10;99.90
41838;DHT22;27511;52.042;5.178;2022-12-16T00:42:46;3.00;99.90
41838;DHT22;27511;52.042;5.178;2022-12-16T00:45:11;3.00;99.90
41838;DHT22;27511;52.042;5.178;2022-12-16T00:47:37;3.00;99.90
41838;DHT22;27511;52.042;5.178;2022-12-16T00:50:03;3.00;99.90
41838;DHT22;27511;52.042;5.178;2022-12-16T00:52:29;3.00;99.90
41838;DHT22;27511;52.042;5.178;2022-12-16T00:54:54;3.00;99.90
41838;DHT22;27511;52.042;5.178;2022-12-16T00:57:21;3.00;99.90
41838;DHT22;27511;52.042;5.178;2022-12-16T00:59:47;2.90;99.90
41838;DHT22;27511;52.042;5.178;2022-12-16T01:02:12;2.90;99.90
41838;DHT22;27511;52.042;5.178;2022-12-16T01:04:38;2.90;99.90
41838;DHT22;27511;52.042;5.178;2022-12-16T01:07:04;3.00;99.90
41838;DHT22;27511;52.042;5.178;2022-12-16T01:09:29;3.10;99.90
41838;DHT22;27511;52.042;5.178;2022-12-16T01:11:55;3.10;99.90
41838;DHT22;27511;52.042;5.178;2022-12-16T01:14:20;3.20;99.90
41838;DHT22;27511;52.042;5.178;2022-12-16T01:16:46;3.30;99.90
41838;DHT22;27511;52.042;5.178;2022-12-16T01:19:11;3.30;99.90
41838;DHT22;27511;52.042;5.178;2022-12-16T01:21:37;3.40;99.90
41838;DHT22;27511;52.042;5.178;2022-12-16T01:24:03;3.40;99.90
41838;DHT22;27511;52.042;5.178;2022-12-16T01:26:29;3.40;99.90
41838;DHT22;27511;52.042;5.178;2022-12-16T01:28:56;3.60;99.90
41838;DHT22;27511;52.042;5.178;2022-12-16T01:31:22;3.70;99.90
41838;DHT22;27511;52.042;5.178;2022-12-16T01:33:48;3.80;99.90
41838;DHT22;27511;52.042;5.178;2022-12-16T01:36:14;3.90;99.90
41838;DHT22;27511;52.042;5.178;2022-12-16T01:38:41;4.00;99.90
41838;DHT22;27511;52.042;5.178;2022-12-16T01:41:09;4.00;99.90
41838;DHT22;27511;52.042;5.178;2022-12-16T01:43:37;4.00;99.90
41838;DHT22;27511;52.042;5.178;2022-12-16T01:46:22;4.10;99.90
41838;DHT22;27511;52.042;5.178;2022-12-16T01:49:01;4.10;99.90
41838;DHT22;27511;52.042;5.178;2022-12-16T01:51:46;4.10;99.90
41838;DHT22;27511;52.042;5.178;2022-12-16T01:54:15;4.10;99.90
41838;DHT22;27511;52.042;5.178;2022-12-16T01:56:47;4.00;99.90
41838;DHT22;27511;52.042;5.178;2022-12-16T01:59:16;4.10;99.90
41838;DHT22;27511;52.042;5.178;2022-12-16T02:01:42;4.10;99.90
41838;DHT22;27511;52.042;5.178;2022-12-16T02:04:08;4.10;99.90
41838;DHT22;27511;52.042;5.178;2022-12-16T02:06:34;4.10;99.90
41838;DHT22;27511;52.042;5.178;2022-12-16T02:09:02;4.10;99.90
41838;DHT22;27511;52.042;5.178;2022-12-16T02:17:42;4.20;99.90
41838;DHT22;27511;52.042;5.178;2022-12-16T02:28:33;4.40;99.90
41838;DHT22;27511;52.042;5.178;2022-12-16T02:31:11;4.50;99.90
41838;DHT22;27511;52.042;5.178;2022-12-16T02:34:00;4.50;99.90
41838;DHT22;27511;52.042;5.178;2022-12-16T02:36:40;4.50;99.90
41838;DHT22;27511;52.042;5.178;2022-12-16T02:39:10;4.50;99.90
41838;DHT22;27511;52.042;5.178;2022-12-16T02:47:05;4.60;99.90
41838;DHT22;27511;52.042;5.178;2022-12-16T02:51:58;4.60;99.90
41838;DHT22;27511;52.042;5.178;2022-12-16T02:54:24;4.60;99.90
41838;DHT22;27511;52.042;5.178;2022-12-16T02:57:02;4.60;99.90
41838;DHT22;27511;52.042;5.178;2022-12-16T02:59:55;4.60;99.90
41838;DHT22;27511;52.042;5.178;2022-12-16T03:05:34;4.80;99.90
41838;DHT22;27511;52.042;5.178;2022-12-16T03:08:04;4.70;99.90
41838;DHT22;27511;52.042;5.178;2022-12-16T03:10:35;4.70;99.90
41838;DHT22;27511;52.042;5.178;2022-12-16T03:13:02;4.70;99.90
41838;DHT22;27511;52.042;5.178;2022-12-16T03:15:32;4.70;99.90
41838;DHT22;27511;52.042;5.178;2022-12-16T03:17:59;4.70;99.90
41838;DHT22;27511;52.042;5.178;2022-12-16T03:20:40;4.70;99.90
41838;DHT22;27511;52.042;5.178;2022-12-16T03:23:11;4.70;99.90
41838;DHT22;27511;52.042;5.178;2022-12-16T03:25:41;4.70;99.90
41838;DHT22;27511;52.042;5.178;2022-12-16T03:30:50;4.70;99.90
41838;DHT22;27511;52.042;5.178;2022-12-16T03:33:27;4.70;99.90
41838;DHT22;27511;52.042;5.178;2022-12-16T03:36:06;4.70;99.90
41838;DHT22;27511;52.042;5.178;2022-12-16T03:38:34;4.60;99.90
41838;DHT22;27511;52.042;5.178;2022-12-16T03:41:02;4.60;99.90
41838;DHT22;27511;52.042;5.178;2022-12-16T03:43:29;4.60;99.90
41838;DHT22;27511;52.042;5.178;2022-12-16T03:45:59;4.60;99.90
41838;DHT22;27511;52.042;5.178;2022-12-16T03:48:25;4.60;99.90
41838;DHT22;27511;52.042;5.178;2022-12-16T03:50:51;4.60;99.90
41838;DHT22;27511;52.042;5.178;2022-12-16T03:53:16;4.60;99.90
41838;DHT22;27511;52.042;5.178;2022-12-16T03:55:43;4.50;99.90
41838;DHT22;27511;52.042;5.178;2022-12-16T03:58:08;4.50;99.90
41838;DHT22;27511;52.042;5.178;2022-12-16T04:00:35;4.50;99.90
41838;DHT22;27511;52.042;5.178;2022-12-16T04:03:00;4.50;99.90
41838;DHT22;27511;52.042;5.178;2022-12-16T04:05:26;4.50;99.90
41838;DHT22;27511;52.042;5.178;2022-12-16T04:07:52;4.50;99.90
41838;DHT22;27511;52.042;5.178;2022-12-16T04:10:17;4.40;99.90
41838;DHT22;27511;52.042;5.178;2022-12-16T04:13:03;4.40;99.90
41838;DHT22;27511;52.042;5.178;2022-12-16T04:15:47;4.40;99.90
41838;DHT22;27511;52.042;5.178;2022-12-16T04:18:32;4.40;99.90
41838;DHT22;27511;52.042;5.178;2022-12-16T04:21:16;4.40;99.90
41838;DHT22;27511;52.042;5.178;2022-12-16T04:24:00;4.40;99.90
41838;DHT22;27511;52.042;5.178;2022-12-16T04:26:45;4.30;99.90
41838;DHT22;27511;52.042;5.178;2022-12-16T04:29:30;4.30;99.90
41838;DHT22;27511;52.042;5.178;2022-12-16T04:31:57;4.20;99.90
41838;DHT22;27511;52.042;5.178;2022-12-16T04:34:23;4.20;99.90
41838;DHT22;27511;52.042;5.178;2022-12-16T04:37:00;4.30;99.90
41838;DHT22;27511;52.042;5.178;2022-12-16T04:39:45;4.30;99.90
41838;DHT22;27511;52.042;5.178;2022-12-16T04:42:29;4.40;99.90
41838;DHT22;27511;52.042;5.178;2022-12-16T04:45:14;4.40;99.90
41838;DHT22;27511;52.042;5.178;2022-12-16T04:47:58;4.30;99.90
41838;DHT22;27511;52.042;5.178;2022-12-16T04:50:44;4.20;99.90
41838;DHT22;27511;52.042;5.178;2022-12-16T04:53:28;4.20;99.90
41838;DHT22;27511;52.042;5.178;2022-12-16T04:56:12;4.20;99.90
41838;DHT22;27511;52.042;5.178;2022-12-16T04:58:57;4.10;99.90
41838;DHT22;27511;52.042;5.178;2022-12-16T05:01:41;4.00;99.90
41838;DHT22;27511;52.042;5.178;2022-12-16T05:04:26;4.10;99.90
41838;DHT22;27511;52.042;5.178;2022-12-16T05:07:10;3.90;99.90
41838;DHT22;27511;52.042;5.178;2022-12-16T05:09:54;3.80;99.90
41838;DHT22;27511;52.042;5.178;2022-12-16T05:12:38;3.70;99.90
41838;DHT22;27511;52.042;5.178;2022-12-16T05:15:22;3.80;99.90
41838;DHT22;27511;52.042;5.178;2022-12-16T05:18:16;3.70;99.90
41838;DHT22;27511;52.042;5.178;2022-12-16T05:21:01;3.60;99.90
41838;DHT22;27511;52.042;5.178;2022-12-16T05:23:46;3.60;99.90
41838;DHT22;27511;52.042;5.178;2022-12-16T05:26:31;3.50;99.90
41838;DHT22;27511;52.042;5.178;2022-12-16T05:29:15;3.40;99.90
41838;DHT22;27511;52.042;5.178;2022-12-16T05:31:59;3.40;99.90
41838;DHT22;27511;52.042;5.178;2022-12-16T05:34:43;3.40;99.90
41838;DHT22;27511;52.042;5.178;2022-12-16T05:37:27;3.30;99.90
41838;DHT22;27511;52.042;5.178;2022-12-16T05:40:11;3.20;99.90
41838;DHT22;27511;52.042;5.178;2022-12-16T05:42:56;3.10;99.90
41838;DHT22;27511;52.042;5.178;2022-12-16T05:45:40;3.10;99.90
41838;DHT22;27511;52.042;5.178;2022-12-16T05:48:25;3.10;99.90
41838;DHT22;27511;52.042;5.178;2022-12-16T05:51:09;3.00;99.90
41838;DHT22;27511;52.042;5.178;2022-12-16T05:53:53;2.90;99.90
41838;DHT22;27511;52.042;5.178;2022-12-16T05:56:37;3.00;99.90
41838;DHT22;27511;52.042;5.178;2022-12-16T05:59:22;2.90;99.90
41838;DHT22;27511;52.042;5.178;2022-12-16T06:02:06;2.90;99.90
41838;DHT22;27511;52.042;5.178;2022-12-16T06:04:50;2.90;99.90
41838;DHT22;27511;52.042;5.178;2022-12-16T06:07:34;2.80;99.90
41838;DHT22;27511;52.042;5.178;2022-12-16T06:10:18;2.70;99.90
41838;DHT22;27511;52.042;5.178;2022-12-16T06:13:03;2.70;99.90
41838;DHT22;27511;52.042;5.178;2022-12-16T06:15:47;2.70;99.90
41838;DHT22;27511;52.042;5.178;2022-12-16T06:18:31;2.90;99.90
41838;DHT22;27511;52.042;5.178;2022-12-16T06:21:16;2.80;99.90
41838;DHT22;27511;52.042;5.178;2022-12-16T06:24:00;2.80;99.90
41838;DHT22;27511;52.042;5.178;2022-12-16T06:26:45;2.60;99.90
41838;DHT22;27511;52.042;5.178;2022-12-16T06:29:29;2.60;99.90
41838;DHT22;27511;52.042;5.178;2022-12-16T06:32:13;2.60;99.90
41838;DHT22;27511;52.042;5.178;2022-12-16T06:34:57;2.60;99.90
41838;DHT22;27511;52.042;5.178;2022-12-16T06:37:41;2.60;99.90
41838;DHT22;27511;52.042;5.178;2022-12-16T06:40:26;2.50;99.90
41838;DHT22;27511;52.042;5.178;2022-12-16T06:43:10;2.50;99.90
41838;DHT22;27511;52.042;5.178;2022-12-16T06:45:54;2.40;99.90
41838;DHT22;27511;52.042;5.178;2022-12-16T06:48:38;2.50;99.90
41838;DHT22;27511;52.042;5.178;2022-12-16T06:51:22;2.50;99.90
41838;DHT22;27511;52.042;5.178;2022-12-16T06:54:06;2.40;99.90
41838;DHT22;27511;52.042;5.178;2022-12-16T06:56:51;2.40;99.90
41838;DHT22;27511;52.042;5.178;2022-12-16T06:59:35;2.40;99.90
41838;DHT22;27511;52.042;5.178;2022-12-16T07:02:19;2.40;99.90
41838;DHT22;27511;52.042;5.178;2022-12-16T07:05:04;2.40;99.90
41838;DHT22;27511;52.042;5.178;2022-12-16T07:07:48;2.40;99.90
41838;DHT22;27511;52.042;5.178;2022-12-16T07:10:33;2.30;99.90
41838;DHT22;27511;52.042;5.178;2022-12-16T07:13:17;2.40;99.90
41838;DHT22;27511;52.042;5.178;2022-12-16T07:16:01;2.40;99.90
41838;DHT22;27511;52.042;5.178;2022-12-16T07:18:45;2.30;99.90
41838;DHT22;27511;52.042;5.178;2022-12-16T07:21:29;2.30;99.90
41838;DHT22;27511;52.042;5.178;2022-12-16T07:24:14;2.30;99.90
41838;DHT22;27511;52.042;5.178;2022-12-16T07:26:58;2.40;99.90
41838;DHT22;27511;52.042;5.178;2022-12-16T07:29:42;2.50;99.90
41838;DHT22;27511;52.042;5.178;2022-12-16T07:32:27;2.50;99.90
41838;DHT22;27511;52.042;5.178;2022-12-16T07:35:11;2.40;99.90
41838;DHT22;27511;52.042;5.178;2022-12-16T07:37:55;2.40;99.90
41838;DHT22;27511;52.042;5.178;2022-12-16T07:40:39;2.30;99.90
41838;DHT22;27511;52.042;5.178;2022-12-16T07:43:23;2.40;99.90
41838;DHT22;27511;52.042;5.178;2022-12-16T07:46:08;2.50;99.90
41838;DHT22;27511;52.042;5.178;2022-12-16T07:48:52;2.40;99.90
41838;DHT22;27511;52.042;5.178;2022-12-16T07:51:36;2.40;99.90
41838;DHT22;27511;52.042;5.178;2022-12-16T07:54:20;2.40;99.90
41838;DHT22;27511;52.042;5.178;2022-12-16T07:57:04;2.40;99.90
41838;DHT22;27511;52.042;5.178;2022-12-16T07:59:49;2.40;99.90
41838;DHT22;27511;52.042;5.178;2022-12-16T08:02:33;2.40;99.90
41838;DHT22;27511;52.042;5.178;2022-12-16T08:05:17;2.40;99.90
41838;DHT22;27511;52.042;5.178;2022-12-16T08:08:01;2.40;99.90
41838;DHT22;27511;52.042;5.178;2022-12-16T08:10:45;2.40;99.90
41838;DHT22;27511;52.042;5.178;2022-12-16T08:13:30;2.30;99.90
41838;DHT22;27511;52.042;5.178;2022-12-16T08:16:14;2.30;99.90
41838;DHT22;27511;52.042;5.178;2022-12-16T08:18:58;2.20;99.90
41838;DHT22;27511;52.042;5.178;2022-12-16T08:21:42;2.30;99.90
41838;DHT22;27511;52.042;5.178;2022-12-16T08:24:27;2.30;99.90
41838;DHT22;27511;52.042;5.178;2022-12-16T08:27:11;2.30;99.90
41838;DHT22;27511;52.042;5.178;2022-12-16T08:29:55;2.30;99.90
41838;DHT22;27511;52.042;5.178;2022-12-16T08:32:39;2.30;99.90
41838;DHT22;27511;52.042;5.178;2022-12-16T08:35:23;2.30;99.90
41838;DHT22;27511;52.042;5.178;2022-12-16T08:38:07;2.30;99.90
41838;DHT22;27511;52.042;5.178;2022-12-16T08:40:53;2.40;99.90
41838;DHT22;27511;52.042;5.178;2022-12-16T08:43:38;2.40;99.90
41838;DHT22;27511;52.042;5.178;2022-12-16T08:46:22;2.40;99.90
41838;DHT22;27511;52.042;5.178;2022-12-16T08:49:07;2.40;99.90
41838;DHT22;27511;52.042;5.178;2022-12-16T08:51:51;2.40;99.90
41838;DHT22;27511;52.042;5.178;2022-12-16T08:59:17;2.40;99.90
41838;DHT22;27511;52.042;5.178;2022-12-16T09:02:01;2.20;99.90
41838;DHT22;27511;52.042;5.178;2022-12-16T09:04:45;2.10;99.90
41838;DHT22;27511;52.042;5.178;2022-12-16T09:07:29;2.20;99.90
41838;DHT22;27511;52.042;5.178;2022-12-16T09:10:14;2.40;99.90
41838;DHT22;27511;52.042;5.178;2022-12-16T09:13:09;2.40;99.90
41838;DHT22;27511;52.042;5.178;2022-12-16T09:15:54;2.60;99.90
41838;DHT22;27511;52.042;5.178;2022-12-16T09:18:38;2.70;99.90
41838;DHT22;27511;52.042;5.178;2022-12-16T09:21:22;2.80;99.90
41838;DHT22;27511;52.042;5.178;2022-12-16T09:24:07;3.00;99.90
41838;DHT22;27511;52.042;5.178;2022-12-16T09:26:51;3.10;99.90
41838;DHT22;27511;52.042;5.178;2022-12-16T09:29:35;3.20;99.90
41838;DHT22;27511;52.042;5.178;2022-12-16T09:32:19;3.10;99.90
41838;DHT22;27511;52.042;5.178;2022-12-16T09:35:04;3.10;99.90
41838;DHT22;27511;52.042;5.178;2022-12-16T09:37:48;3.30;99.90
41838;DHT22;27511;52.042;5.178;2022-12-16T09:40:32;3.40;99.90
41838;DHT22;27511;52.042;5.178;2022-12-16T09:43:31;3.40;99.90
41838;DHT22;27511;52.042;5.178;2022-12-16T09:52:35;3.60;99.90
41838;DHT22;27511;52.042;5.178;2022-12-16T09:55:26;3.60;99.90
41838;DHT22;27511;52.042;5.178;2022-12-16T09:58:12;3.70;99.90
41838;DHT22;27511;52.042;5.178;2022-12-16T10:00:58;3.70;99.90
41838;DHT22;27511;52.042;5.178;2022-12-16T10:03:43;3.80;99.90
41838;DHT22;27511;52.042;5.178;2022-12-16T10:09:32;4.00;99.90
41838;DHT22;27511;52.042;5.178;2022-12-16T10:18:42;4.30;99.90
41838;DHT22;27511;52.042;5.178;2022-12-16T10:24:46;4.40;99.90
41838;DHT22;27511;52.042;5.178;2022-12-16T10:30:21;4.60;99.90
41838;DHT22;27511;52.042;5.178;2022-12-16T10:33:19;4.70;99.90
41838;DHT22;27511;52.042;5.178;2022-12-16T10:36:05;4.70;99.90
41838;DHT22;27511;52.042;5.178;2022-12-16T10:38:59;4.70;99.90
41838;DHT22;27511;52.042;5.178;2022-12-16T10:41:47;4.80;99.90
41838;DHT22;27511;52.042;5.178;2022-12-16T10:44:51;4.90;99.90
41838;DHT22;27511;52.042;5.178;2022-12-16T10:47:36;4.90;99.90
41838;DHT22;27511;52.042;5.178;2022-12-16T10:50:21;5.00;99.90
41838;DHT22;27511;52.042;5.178;2022-12-16T10:53:16;5.00;99.90
41838;DHT22;27511;52.042;5.178;2022-12-16T10:56:33;5.10;99.90
41838;DHT22;27511;52.042;5.178;2022-12-16T10:59:36;5.10;99.90
41838;DHT22;27511;52.042;5.178;2022-12-16T11:02:24;5.10;99.90
41838;DHT22;27511;52.042;5.178;2022-12-16T11:08:37;5.20;99.90
41838;DHT22;27511;52.042;5.178;2022-12-16T11:11:25;5.20;99.90
41838;DHT22;27511;52.042;5.178;2022-12-16T11:14:30;5.30;99.90
41838;DHT22;27511;52.042;5.178;2022-12-16T11:17:15;5.40;99.90
41838;DHT22;27511;52.042;5.178;2022-12-16T11:20:21;5.40;99.90
41838;DHT22;27511;52.042;5.178;2022-12-16T11:29:02;5.60;99.90
41838;DHT22;27511;52.042;5.178;2022-12-16T11:31:53;5.60;99.90
41838;DHT22;27511;52.042;5.178;2022-12-16T11:34:40;5.70;99.90
41838;DHT22;27511;52.042;5.178;2022-12-16T11:37:27;5.70;99.90
41838;DHT22;27511;52.042;5.178;2022-12-16T11:40:14;5.70;99.90
41838;DHT22;27511;52.042;5.178;2022-12-16T11:43:01;5.80;99.90
41838;DHT22;27511;52.042;5.178;2022-12-16T11:45:48;5.80;99.90
41838;DHT22;27511;52.042;5.178;2022-12-16T11:48:58;5.90;99.90
41838;DHT22;27511;52.042;5.178;2022-12-16T11:51:47;6.00;99.90
41838;DHT22;27511;52.042;5.178;2022-12-16T11:54:36;6.00;99.90
41838;DHT22;27511;52.042;5.178;2022-12-16T11:57:36;5.90;99.90
41838;DHT22;27511;52.042;5.178;2022-12-16T12:00:22;5.90;99.90
41838;DHT22;27511;52.042;5.178;2022-12-16T12:03:11;6.00;99.90
41838;DHT22;27511;52.042;5.178;2022-12-16T12:09:22;6.00;99.90
41838;DHT22;27511;52.042;5.178;2022-12-16T12:15:18;6.10;99.90
41838;DHT22;27511;52.042;5.178;2022-12-16T12:18:34;6.10;99.90
41838;DHT22;27511;52.042;5.178;2022-12-16T12:21:24;6.10;99.90
41838;DHT22;27511;52.042;5.178;2022-12-16T12:36:35;6.20;99.90
41838;DHT22;27511;52.042;5.178;2022-12-16T12:48:42;6.40;99.90
41838;DHT22;27511;52.042;5.178;2022-12-16T12:51:38;6.30;99.90
41838;DHT22;27511;52.042;5.178;2022-12-16T12:54:39;6.40;99.90
41838;DHT22;27511;52.042;5.178;2022-12-16T12:57:27;6.40;99.90
41838;DHT22;27511;52.042;5.178;2022-12-16T13:06:08;6.70;99.90
41838;DHT22;27511;52.042;5.178;2022-12-16T13:08:57;6.70;99.90
41838;DHT22;27511;52.042;5.178;2022-12-16T13:15:03;6.60;99.90
41838;DHT22;27511;52.042;5.178;2022-12-16T13:20:56;6.60;99.90
41838;DHT22;27511;52.042;5.178;2022-12-16T13:23:44;6.50;99.90
41838;DHT22;27511;52.042;5.178;2022-12-16T13:26:32;6.60;99.90
41838;DHT22;27511;52.042;5.178;2022-12-16T13:29:30;6.70;99.90
41838;DHT22;27511;52.042;5.178;2022-12-16T13:32:21;6.70;99.90
41838;DHT22;27511;52.042;5.178;2022-12-16T13:40:58;6.80;99.90
41838;DHT22;27511;52.042;5.178;2022-12-16T13:43:56;6.80;99.90
41838;DHT22;27511;52.042;5.178;2022-12-16T13:46:46;6.80;99.90
41838;DHT22;27511;52.042;5.178;2022-12-16T13:55:58;7.20;99.90
41838;DHT22;27511;52.042;5.178;2022-12-16T13:58:49;7.40;99.90
41838;DHT22;27511;52.042;5.178;2022-12-16T14:02:00;7.40;99.90
41838;DHT22;27511;52.042;5.178;2022-12-16T14:04:51;7.40;99.90
41838;DHT22;27511;52.042;5.178;2022-12-16T14:07:36;7.40;99.90
41838;DHT22;27511;52.042;5.178;2022-12-16T14:10:32;7.40;99.90
41838;DHT22;27511;52.042;5.178;2022-12-16T14:13:34;7.20;99.90
41838;DHT22;27511;52.042;5.178;2022-12-16T14:16:43;7.10;99.90
41838;DHT22;27511;52.042;5.178;2022-12-16T14:19:56;7.00;99.90
41838;DHT22;27511;52.042;5.178;2022-12-16T14:23:02;6.90;99.90
41838;DHT22;27511;52.042;5.178;2022-12-16T14:25:56;6.90;99.90
41838;DHT22;27511;52.042;5.178;2022-12-16T14:28:44;6.90;99.90
41838;DHT22;27511;52.042;5.178;2022-12-16T14:31:39;6.90;99.90
41838;DHT22;27511;52.042;5.178;2022-12-16T14:37:36;6.80;99.90
41838;DHT22;27511;52.042;5.178;2022-12-16T14:40:23;6.80;99.90
41838;DHT22;27511;52.042;5.178;2022-12-16T14:43:17;6.80;99.90
41838;DHT22;27511;52.042;5.178;2022-12-16T14:46:01;6.70;99.90
41838;DHT22;27511;52.042;5.178;2022-12-16T14:48:47;6.70;99.90
41838;DHT22;27511;52.042;5.178;2022-12-16T14:57:20;6.50;99.90
41838;DHT22;27511;52.042;5.178;2022-12-16T15:06:02;6.30;99.90
41838;DHT22;27511;52.042;5.178;2022-12-16T15:08:52;6.30;99.90
41838;DHT22;27511;52.042;5.178;2022-12-16T15:11:38;6.20;99.90
41838;DHT22;27511;52.042;5.178;2022-12-16T15:14:30;6.20;99.90
41838;DHT22;27511;52.042;5.178;2022-12-16T15:20:27;6.10;99.90
41838;DHT22;27511;52.042;5.178;2022-12-16T15:23:32;6.00;99.90
41838;DHT22;27511;52.042;5.178;2022-12-16T15:26:21;6.00;99.90
41838;DHT22;27511;52.042;5.178;2022-12-16T15:41:04;5.60;99.90
41838;DHT22;27511;52.042;5.178;2022-12-16T15:43:49;5.70;99.90
41838;DHT22;27511;52.042;5.178;2022-12-16T15:46:35;5.50;99.90
41838;DHT22;27511;52.042;5.178;2022-12-16T15:49:37;5.50;99.90
41838;DHT22;27511;52.042;5.178;2022-12-16T15:55:26;5.40;99.90
41838;DHT22;27511;52.042;5.178;2022-12-16T15:58:34;5.30;99.90
41838;DHT22;27511;52.042;5.178;2022-12-16T16:01:21;5.20;99.90
41838;DHT22;27511;52.042;5.178;2022-12-16T16:07:15;5.10;99.90
41838;DHT22;27511;52.042;5.178;2022-12-16T16:10:20;5.00;99.90
41838;DHT22;27511;52.042;5.178;2022-12-16T16:13:05;4.90;99.90
41838;DHT22;27511;52.042;5.178;2022-12-16T16:15:49;4.90;99.90
41838;DHT22;27511;52.042;5.178;2022-12-16T16:18:34;4.80;99.90
41838;DHT22;27511;52.042;5.178;2022-12-16T16:21:18;4.80;99.90
41838;DHT22;27511;52.042;5.178;2022-12-16T16:24:02;4.70;99.90
41838;DHT22;27511;52.042;5.178;2022-12-16T16:26:47;4.70;99.90
41838;DHT22;27511;52.042;5.178;2022-12-16T16:29:31;4.60;99.90
41838;DHT22;27511;52.042;5.178;2022-12-16T16:32:15;4.60;99.90
41838;DHT22;27511;52.042;5.178;2022-12-16T16:34:59;4.50;99.90
41838;DHT22;27511;52.042;5.178;2022-12-16T16:37:43;4.50;99.90
41838;DHT22;27511;52.042;5.178;2022-12-16T16:40:31;4.40;99.90
41838;DHT22;27511;52.042;5.178;2022-12-16T16:43:16;4.40;99.90
41838;DHT22;27511;52.042;5.178;2022-12-16T16:46:01;4.40;99.90
41838;DHT22;27511;52.042;5.178;2022-12-16T16:48:45;4.30;99.90
41838;DHT22;27511;52.042;5.178;2022-12-16T16:51:29;4.30;99.90
41838;DHT22;27511;52.042;5.178;2022-12-16T16:54:13;4.20;99.90
41838;DHT22;27511;52.042;5.178;2022-12-16T16:57:01;4.20;99.90
41838;DHT22;27511;52.042;5.178;2022-12-16T16:59:45;4.10;99.90
41838;DHT22;27511;52.042;5.178;2022-12-16T17:02:29;4.10;99.90
41838;DHT22;27511;52.042;5.178;2022-12-16T17:05:14;4.00;99.90
41838;DHT22;27511;52.042;5.178;2022-12-16T17:07:58;3.90;99.90
41838;DHT22;27511;52.042;5.178;2022-12-16T17:10:42;3.90;99.90
41838;DHT22;27511;52.042;5.178;2022-12-16T17:13:26;3.80;99.90
41838;DHT22;27511;52.042;5.178;2022-12-16T17:16:12;3.80;99.90
41838;DHT22;27511;52.042;5.178;2022-12-16T17:19:00;3.80;99.90
41838;DHT22;27511;52.042;5.178;2022-12-16T17:21:44;3.80;99.90
41838;DHT22;27511;52.042;5.178;2022-12-16T17:24:29;3.70;99.90
41838;DHT22;27511;52.042;5.178;2022-12-16T17:27:18;3.70;99.90
41838;DHT22;27511;52.042;5.178;2022-12-16T17:30:25;3.60;99.90
41838;DHT22;27511;52.042;5.178;2022-12-16T17:33:09;3.60;99.90
41838;DHT22;27511;52.042;5.178;2022-12-16T17:35:53;3.50;99.90
41838;DHT22;27511;52.042;5.178;2022-12-16T17:38:39;3.50;99.90
41838;DHT22;27511;52.042;5.178;2022-12-16T17:41:25;3.60;99.90
41838;DHT22;27511;52.042;5.178;2022-12-16T17:44:12;3.50;99.90
41838;DHT22;27511;52.042;5.178;2022-12-16T17:46:59;3.50;99.90
41838;DHT22;27511;52.042;5.178;2022-12-16T17:49:43;3.50;99.90
41838;DHT22;27511;52.042;5.178;2022-12-16T17:52:27;3.50;99.90
41838;DHT22;27511;52.042;5.178;2022-12-16T17:55:12;3.50;99.90
41838;DHT22;27511;52.042;5.178;2022-12-16T17:57:56;3.50;99.90
41838;DHT22;27511;52.042;5.178;2022-12-16T18:00:40;3.50;99.90
41838;DHT22;27511;52.042;5.178;2022-12-16T18:03:24;3.50;99.90
41838;DHT22;27511;52.042;5.178;2022-12-16T18:06:09;3.50;99.90
41838;DHT22;27511;52.042;5.178;2022-12-16T18:08:53;3.50;99.90
41838;DHT22;27511;52.042;5.178;2022-12-16T18:11:37;3.40;99.90
41838;DHT22;27511;52.042;5.178;2022-12-16T18:14:21;3.40;99.90
41838;DHT22;27511;52.042;5.178;2022-12-16T18:17:06;3.40;99.90
41838;DHT22;27511;52.042;5.178;2022-12-16T18:19:50;3.40;99.90
41838;DHT22;27511;52.042;5.178;2022-12-16T18:22:34;3.30;99.90
41838;DHT22;27511;52.042;5.178;2022-12-16T18:25:18;3.30;99.90
41838;DHT22;27511;52.042;5.178;2022-12-16T18:28:03;3.30;99.90
41838;DHT22;27511;52.042;5.178;2022-12-16T18:30:47;3.30;99.90
41838;DHT22;27511;52.042;5.178;2022-12-16T18:33:31;3.20;99.90
41838;DHT22;27511;52.042;5.178;2022-12-16T18:36:16;3.20;99.90
41838;DHT22;27511;52.042;5.178;2022-12-16T18:39:00;3.10;99.90
41838;DHT22;27511;52.042;5.178;2022-12-16T18:41:45;3.00;99.90
41838;DHT22;27511;52.042;5.178;2022-12-16T18:44:30;3.00;99.90
41838;DHT22;27511;52.042;5.178;2022-12-16T18:47:15;2.90;99.90
41838;DHT22;27511;52.042;5.178;2022-12-16T18:49:59;2.90;99.90
41838;DHT22;27511;52.042;5.178;2022-12-16T18:52:44;2.80;99.90
41838;DHT22;27511;52.042;5.178;2022-12-16T18:55:28;2.80;99.90
41838;DHT22;27511;52.042;5.178;2022-12-16T18:58:13;2.80;99.90
41838;DHT22;27511;52.042;5.178;2022-12-16T19:01:05;2.70;99.90
41838;DHT22;27511;52.042;5.178;2022-12-16T19:03:50;2.70;99.90
41838;DHT22;27511;52.042;5.178;2022-12-16T19:06:35;2.60;99.90
41838;DHT22;27511;52.042;5.178;2022-12-16T19:09:19;2.60;99.90
41838;DHT22;27511;52.042;5.178;2022-12-16T19:12:04;2.50;99.90
41838;DHT22;27511;52.042;5.178;2022-12-16T19:14:48;2.50;99.90
41838;DHT22;27511;52.042;5.178;2022-12-16T19:17:32;2.50;99.90
41838;DHT22;27511;52.042;5.178;2022-12-16T19:20:16;2.50;99.90
41838;DHT22;27511;52.042;5.178;2022-12-16T19:23:01;2.40;99.90
41838;DHT22;27511;52.042;5.178;2022-12-16T19:25:45;2.40;99.90
41838;DHT22;27511;52.042;5.178;2022-12-16T19:28:29;2.50;99.90
41838;DHT22;27511;52.042;5.178;2022-12-16T19:31:13;2.40;99.90
41838;DHT22;27511;52.042;5.178;2022-12-16T19:33:58;2.40;99.90
41838;DHT22;27511;52.042;5.178;2022-12-16T19:36:42;2.40;99.90
41838;DHT22;27511;52.042;5.178;2022-12-16T19:39:26;2.30;99.90
41838;DHT22;27511;52.042;5.178;2022-12-16T19:42:11;2.30;99.90
41838;DHT22;27511;52.042;5.178;2022-12-16T19:44:56;2.30;99.90
41838;DHT22;27511;52.042;5.178;2022-12-16T19:47:41;2.30;99.90
41838;DHT22;27511;52.042;5.178;2022-12-16T19:50:25;2.30;99.90
41838;DHT22;27511;52.042;5.178;2022-12-16T19:53:10;2.20;99.90
41838;DHT22;27511;52.042;5.178;2022-12-16T19:55:55;2.30;99.90